Time;durP1;ratioP1;P1;durP2;ratioP2;P2;SDS_P1;SDS_P2;PMS_P1;PMS_P2;Temp;Humidity;BMP_temperature;BMP_pressure;BME280_temperature;BME280_humidity;BME280_pressure;Samples;Min_cycle;Max_cycle;Signal;HPM_P1;HPM_P2
2023/05/26 00:01:29;;;;;;;32.35;7.10;;;;;;;;;;5062717;28;20044;-80
2023/05/26 00:03:56;;;;;;;35.47;7.38;;;;;;;;;;5062926;28;20451;-78
2023/05/26 00:06:23;;;;;;;39.17;7.57;;;;;;;;;;5046577;28;20040;-80
2023/05/26 00:08:49;;;;;;;34.13;7.15;;;;;;;;;;5051838;28;20029;-81
2023/05/26 00:11:15;;;;;;;31.08;6.60;;;;;;;;;;5062307;28;20036;-81
2023/05/26 00:13:42;;;;;;;36.67;7.60;;;;;;;;;;5060143;28;20127;-78
2023/05/26 00:16:08;;;;;;;31.35;7.18;;;;;;;;;;5044994;28;20045;-77
2023/05/26 00:18:34;;;;;;;33.55;7.53;;;;;;;;;;5068018;28;20040;-78
2023/05/26 00:21:00;;;;;;;30.67;7.35;;;;;;;;;;5080302;28;20040;-77
2023/05/26 00:23:27;;;;;;;32.35;6.93;;;;;;;;;;5061727;28;20102;-79
2023/05/26 00:25:53;;;;;;;41.65;8.05;;;;;;;;;;5080360;28;20097;-81
2023/05/26 00:28:19;;;;;;;33.10;7.00;;;;;;;;;;5060934;28;20528;-80
2023/05/26 00:30:45;;;;;;;39.75;7.70;;;;;;;;;;5065671;28;20040;-82
2023/05/26 00:33:11;;;;;;;33.00;7.75;;;;;;;;;;5065060;28;20059;-78
2023/05/26 00:35:37;;;;;;;42.45;7.75;;;;;;;;;;5046461;28;20094;-79
2023/05/26 00:38:05;;;;;;;36.35;7.63;;;;;;;;;;5073427;28;20491;-78
2023/05/26 00:40:32;;;;;;;35.90;7.72;;;;;;;;;;5050258;28;20142;-78
2023/05/26 00:42:58;;;;;;;36.67;7.55;;;;;;;;;;5044463;28;20479;-78
2023/05/26 00:45:25;;;;;;;43.90;9.18;;;;;;;;;;5060011;28;20044;-77
2023/05/26 00:47:51;;;;;;;33.88;8.10;;;;;;;;;;5051101;28;20404;-81
2023/05/26 00:50:17;;;;;;;33.03;6.70;;;;;;;;;;5065359;28;20044;-81
2023/05/26 00:52:44;;;;;;;33.45;7.35;;;;;;;;;;5063709;28;20048;-78
2023/05/26 00:55:10;;;;;;;38.88;8.57;;;;;;;;;;5061143;28;20119;-82
2023/05/26 00:57:36;;;;;;;36.45;8.23;;;;;;;;;;5060350;28;20045;-78
2023/05/26 01:00:03;;;;;;;35.97;8.80;;;;;;;;;;5060030;28;20500;-83
2023/05/26 01:02:29;;;;;;;35.15;7.85;;;;;;;;;;5045050;28;20483;-79
2023/05/26 01:04:57;;;;;;;43.03;7.95;;;;;;;;;;5046376;28;20044;-81
2023/05/26 01:07:23;;;;;;;37.78;7.43;;;;;;;;;;5070797;28;20036;-79
2023/05/26 01:09:50;;;;;;;43.00;8.60;;;;;;;;;;5062406;28;20178;-81
2023/05/26 01:12:46;;;;;;;32.17;7.63;;;;;;;;;;5066857;28;20058;-79
2023/05/26 01:15:14;;;;;;;32.53;7.40;;;;;;;;;;5057371;28;20121;-81
2023/05/26 01:17:44;;;;;;;32.33;7.22;;;;;;;;;;5047193;28;20036;-77
2023/05/26 01:20:29;;;;;;;36.05;7.68;;;;;;;;;;5063662;28;20032;-82
2023/05/26 01:23:17;;;;;;;36.60;7.60;;;;;;;;;;5052454;28;20040;-77
2023/05/26 01:26:02;;;;;;;34.65;4.57;;;;;;;;;;5060475;28;20048;-78
2023/05/26 01:28:29;;;;;;;37.10;8.63;;;;;;;;;;5069577;28;20109;-81
2023/05/26 01:30:56;;;;;;;39.80;8.02;;;;;;;;;;5051885;28;20036;-77
2023/05/26 01:33:22;;;;;;;35.80;7.93;;;;;;;;;;5045743;28;20526;-81
2023/05/26 01:35:48;;;;;;;33.30;7.55;;;;;;;;;;5060467;28;20040;-77
2023/05/26 01:38:14;;;;;;;39.10;8.43;;;;;;;;;;5077823;28;20041;-81
2023/05/26 01:40:42;;;;;;;34.80;7.55;;;;;;;;;;5053391;28;20044;-81
2023/05/26 01:43:14;;;;;;;38.80;8.40;;;;;;;;;;5047670;28;20076;-77
2023/05/26 01:45:43;;;;;;;43.20;7.65;;;;;;;;;;5070503;28;20045;-76
2023/05/26 01:48:10;;;;;;;37.20;7.20;;;;;;;;;;5063045;28;20040;-76
2023/05/26 01:50:45;;;;;;;37.42;7.43;;;;;;;;;;5066037;28;20127;-77
2023/05/26 01:53:12;;;;;;;36.95;7.35;;;;;;;;;;5050271;28;20132;-77
2023/05/26 01:55:38;;;;;;;42.97;8.38;;;;;;;;;;5068161;28;20051;-78
2023/05/26 01:58:06;;;;;;;47.58;8.75;;;;;;;;;;5077293;28;20047;-78
2023/05/26 02:00:32;;;;;;;37.60;7.60;;;;;;;;;;5065750;28;20133;-78
2023/05/26 02:02:58;;;;;;;43.03;7.82;;;;;;;;;;5069499;28;20043;-80
2023/05/26 02:05:24;;;;;;;33.75;7.90;;;;;;;;;;5061463;28;20048;-77
2023/05/26 02:07:51;;;;;;;36.90;7.97;;;;;;;;;;5078801;28;20048;-80
2023/05/26 02:10:17;;;;;;;38.20;8.88;;;;;;;;;;5064268;28;20112;-81
2023/05/26 02:12:43;;;;;;;37.30;8.43;;;;;;;;;;5092491;28;20040;-83
2023/05/26 02:15:09;;;;;;;33.60;7.85;;;;;;;;;;5070472;28;20033;-77
2023/05/26 02:17:35;;;;;;;37.67;7.13;;;;;;;;;;5072854;28;20138;-77
2023/05/26 02:20:02;;;;;;;36.95;7.88;;;;;;;;;;5075794;28;20048;-81
2023/05/26 02:22:28;;;;;;;41.22;7.88;;;;;;;;;;5066853;28;20851;-82
2023/05/26 02:24:57;;;;;;;40.45;8.18;;;;;;;;;;5085203;28;20494;-77
2023/05/26 02:27:23;;;;;;;39.15;8.18;;;;;;;;;;5077594;28;20041;-78
2023/05/26 02:29:49;;;;;;;38.45;8.25;;;;;;;;;;5083380;28;20085;-76
2023/05/26 02:32:15;;;;;;;43.60;8.82;;;;;;;;;;5048994;28;20044;-77
2023/05/26 02:34:41;;;;;;;35.10;7.40;;;;;;;;;;5065809;28;20043;-77
2023/05/26 02:37:07;;;;;;;45.17;8.75;;;;;;;;;;5082073;28;20452;-77
2023/05/26 02:39:33;;;;;;;40.40;7.85;;;;;;;;;;5085851;28;20131;-77
2023/05/26 02:42:00;;;;;;;35.78;8.10;;;;;;;;;;5049201;28;20041;-79
2023/05/26 02:44:26;;;;;;;42.92;8.98;;;;;;;;;;5080270;28;20438;-83
2023/05/26 02:46:51;;;;;;;40.08;7.95;;;;;;;;;;5056892;28;20127;-81
2023/05/26 02:49:18;;;;;;;43.00;8.75;;;;;;;;;;5073328;28;20051;-82
2023/05/26 02:51:44;;;;;;;38.72;8.40;;;;;;;;;;5061126;28;20047;-79
2023/05/26 02:54:09;;;;;;;42.05;7.85;;;;;;;;;;5077729;28;20655;-77
2023/05/26 02:56:35;;;;;;;42.80;8.00;;;;;;;;;;5060890;28;20045;-78
2023/05/26 02:59:02;;;;;;;39.55;7.43;;;;;;;;;;5070193;28;20480;-78
2023/05/26 03:01:29;;;;;;;32.67;8.05;;;;;;;;;;5064008;28;20055;-77
2023/05/26 03:03:55;;;;;;;42.67;8.75;;;;;;;;;;5076920;28;20060;-79
2023/05/26 03:06:22;;;;;;;36.63;7.70;;;;;;;;;;5081894;28;20044;-80
2023/05/26 03:08:48;;;;;;;29.13;5.75;;;;;;;;;;5067229;28;20772;-83
2023/05/26 03:11:14;;;;;;;39.33;8.93;;;;;;;;;;5073856;28;20051;-81
2023/05/26 03:13:40;;;;;;;35.08;7.28;;;;;;;;;;5072703;28;20044;-79
2023/05/26 03:16:06;;;;;;;41.42;7.88;;;;;;;;;;5068843;28;20407;-79
2023/05/26 03:18:32;;;;;;;38.40;7.97;;;;;;;;;;5064045;28;20056;-79
2023/05/26 03:20:58;;;;;;;36.78;7.32;;;;;;;;;;5063984;28;20053;-80
2023/05/26 03:23:24;;;;;;;40.58;7.90;;;;;;;;;;5065607;28;20048;-81
2023/05/26 03:25:51;;;;;;;42.50;8.35;;;;;;;;;;5069629;28;20044;-82
2023/05/26 03:28:17;;;;;;;46.88;8.02;;;;;;;;;;5055031;28;20051;-77
2023/05/26 03:30:43;;;;;;;44.15;7.88;;;;;;;;;;5047956;28;20041;-83
2023/05/26 03:33:09;;;;;;;43.47;7.82;;;;;;;;;;5070704;28;20059;-78
2023/05/26 03:35:35;;;;;;;45.30;7.78;;;;;;;;;;5079345;28;20127;-77
2023/05/26 03:38:01;;;;;;;39.22;8.35;;;;;;;;;;5054729;28;20067;-79
2023/05/26 03:40:27;;;;;;;36.65;8.57;;;;;;;;;;5053416;28;20198;-81
2023/05/26 03:42:53;;;;;;;36.53;7.40;;;;;;;;;;5074147;28;20504;-83
2023/05/26 03:45:19;;;;;;;35.90;8.25;;;;;;;;;;5063575;28;20048;-82
2023/05/26 03:47:45;;;;;;;38.40;7.80;;;;;;;;;;5085016;28;20716;-82
2023/05/26 03:50:11;;;;;;;41.25;7.78;;;;;;;;;;5069648;28;20033;-83
2023/05/26 03:52:38;;;;;;;33.83;7.80;;;;;;;;;;5052691;28;20115;-80
2023/05/26 03:55:05;;;;;;;40.35;8.50;;;;;;;;;;5061257;28;20745;-76
2023/05/26 03:57:31;;;;;;;38.38;7.85;;;;;;;;;;5073510;28;20044;-81
2023/05/26 03:59:57;;;;;;;36.72;7.68;;;;;;;;;;5051185;28;20045;-80
2023/05/26 04:02:23;;;;;;;37.88;7.72;;;;;;;;;;5073366;28;20040;-78
2023/05/26 04:04:49;;;;;;;37.70;7.93;;;;;;;;;;5087303;28;20411;-80
2023/05/26 04:07:16;;;;;;;38.88;7.70;;;;;;;;;;5088127;28;20049;-79
2023/05/26 04:09:42;;;;;;;43.25;9.27;;;;;;;;;;5081587;28;20493;-80
2023/05/26 04:12:08;;;;;;;39.08;7.55;;;;;;;;;;5078744;28;20550;-81
2023/05/26 04:14:34;;;;;;;48.50;8.13;;;;;;;;;;5052424;28;20380;-78
2023/05/26 04:17:00;;;;;;;37.63;8.18;;;;;;;;;;5075890;28;20861;-78
2023/05/26 04:19:26;;;;;;;39.25;7.95;;;;;;;;;;5048246;28;20040;-81
2023/05/26 04:21:52;;;;;;;41.00;7.68;;;;;;;;;;5045496;28;20037;-81
2023/05/26 04:24:18;;;;;;;33.55;7.45;;;;;;;;;;5051752;28;20047;-82
2023/05/26 04:26:44;;;;;;;38.03;8.30;;;;;;;;;;5061510;28;20046;-79
2023/05/26 04:29:10;;;;;;;35.17;7.40;;;;;;;;;;5058520;28;20033;-78
2023/05/26 04:31:40;;;;;;;35.97;7.50;;;;;;;;;;5048367;28;20119;-80
2023/05/26 04:34:07;;;;;;;35.22;7.45;;;;;;;;;;5064321;28;20040;-82
2023/05/26 04:36:38;;;;;;;39.35;7.90;;;;;;;;;;5075931;28;20649;-78
2023/05/26 04:39:04;;;;;;;35.08;7.40;;;;;;;;;;5062860;28;20044;-80
2023/05/26 04:41:32;;;;;;;40.25;7.82;;;;;;;;;;5071921;28;20036;-82
2023/05/26 04:43:58;;;;;;;43.00;8.70;;;;;;;;;;5073094;28;20116;-79
2023/05/26 04:46:24;;;;;;;36.33;8.20;;;;;;;;;;5049948;28;20581;-82
2023/05/26 04:48:52;;;;;;;38.45;7.90;;;;;;;;;;5062576;28;20567;-77
2023/05/26 04:51:18;;;;;;;38.85;8.77;;;;;;;;;;5055270;28;20059;-80
2023/05/26 04:53:44;;;;;;;34.83;6.68;;;;;;;;;;5072518;28;20094;-82
2023/05/26 04:56:10;;;;;;;35.97;7.00;;;;;;;;;;5069895;28;20048;-79
2023/05/26 04:58:37;;;;;;;40.30;7.65;;;;;;;;;;5074285;28;20119;-80
2023/05/26 05:01:03;;;;;;;34.97;8.18;;;;;;;;;;5049190;28;20037;-79
2023/05/26 05:03:34;;;;;;;29.15;7.50;;;;;;;;;;5049298;28;20048;-81
2023/05/26 05:06:00;;;;;;;36.95;7.43;;;;;;;;;;5047132;28;20049;-77
2023/05/26 05:08:27;;;;;;;34.95;7.80;;;;;;;;;;5069317;28;20044;-82
2023/05/26 05:10:53;;;;;;;30.60;6.50;;;;;;;;;;5071234;28;20059;-82
2023/05/26 05:13:19;;;;;;;38.83;7.68;;;;;;;;;;5063437;28;20055;-77
2023/05/26 05:15:45;;;;;;;36.90;7.68;;;;;;;;;;5083149;28;20043;-84
2023/05/26 05:18:11;;;;;;;34.20;8.13;;;;;;;;;;5065936;28;20036;-82
2023/05/26 05:20:37;;;;;;;28.90;7.45;;;;;;;;;;5064213;28;20028;-83
2023/05/26 05:23:03;;;;;;;35.92;6.93;;;;;;;;;;5068517;28;20127;-84
2023/05/26 05:25:29;;;;;;;39.10;7.25;;;;;;;;;;5064469;28;20484;-78
2023/05/26 05:27:55;;;;;;;40.05;7.68;;;;;;;;;;5077475;28;20044;-82
2023/05/26 05:30:22;;;;;;;37.80;7.72;;;;;;;;;;5064446;28;20091;-80
2023/05/26 05:32:48;;;;;;;33.75;7.15;;;;;;;;;;5062454;28;20043;-83
2023/05/26 05:35:14;;;;;;;39.00;7.03;;;;;;;;;;5068731;28;20135;-84
2023/05/26 05:37:40;;;;;;;35.83;7.65;;;;;;;;;;5046533;28;20071;-82
2023/05/26 05:40:07;;;;;;;39.65;8.70;;;;;;;;;;5065586;28;20040;-86
2023/05/26 05:42:33;;;;;;;34.33;8.38;;;;;;;;;;5056146;28;20040;-78
2023/05/26 05:44:59;;;;;;;32.78;8.60;;;;;;;;;;5076817;28;20466;-84
2023/05/26 05:47:25;;;;;;;34.42;10.20;;;;;;;;;;5060177;28;20033;-82
2023/05/26 05:49:51;;;;;;;34.17;8.68;;;;;;;;;;5064530;28;20127;-82
2023/05/26 05:52:17;;;;;;;37.28;8.35;;;;;;;;;;5072212;28;20370;-82
2023/05/26 05:54:43;;;;;;;39.30;9.25;;;;;;;;;;5078783;28;20036;-82
2023/05/26 05:57:09;;;;;;;39.13;9.30;;;;;;;;;;5065367;28;20044;-81
2023/05/26 05:59:35;;;;;;;40.92;9.65;;;;;;;;;;5078507;28;20624;-82
2023/05/26 06:02:01;;;;;;;36.67;7.90;;;;;;;;;;5075168;28;20048;-82
2023/05/26 06:04:27;;;;;;;33.72;7.45;;;;;;;;;;5072582;28;20055;-80
2023/05/26 06:06:53;;;;;;;36.72;7.90;;;;;;;;;;5074514;28;20048;-81
2023/05/26 06:09:19;;;;;;;39.05;8.65;;;;;;;;;;5054524;28;20052;-82
2023/05/26 06:11:45;;;;;;;34.92;7.25;;;;;;;;;;5062766;28;20121;-80
2023/05/26 06:14:11;;;;;;;34.50;7.88;;;;;;;;;;5070659;28;20052;-82
2023/05/26 06:16:37;;;;;;;33.58;7.53;;;;;;;;;;5085397;28;20064;-80
2023/05/26 06:19:03;;;;;;;34.92;7.95;;;;;;;;;;5072035;28;20154;-85
2023/05/26 06:21:29;;;;;;;33.58;6.47;;;;;;;;;;5066253;28;20044;-80
2023/05/26 06:23:55;;;;;;;35.33;6.80;;;;;;;;;;5081333;28;20391;-82
2023/05/26 06:26:21;;;;;;;31.13;6.18;;;;;;;;;;5069086;28;20051;-80
2023/05/26 06:28:47;;;;;;;27.05;5.97;;;;;;;;;;5079030;28;20040;-81
2023/05/26 06:31:13;;;;;;;28.52;6.10;;;;;;;;;;5064749;28;20040;-78
2023/05/26 06:33:39;;;;;;;41.30;7.38;;;;;;;;;;5060125;28;20110;-78
2023/05/26 06:36:05;;;;;;;32.60;6.38;;;;;;;;;;5080971;28;20074;-76
2023/05/26 06:38:31;;;;;;;27.52;5.38;;;;;;;;;;5069083;28;20049;-78
2023/05/26 06:40:57;;;;;;;48.10;8.00;;;;;;;;;;5073397;28;20549;-79
2023/05/26 06:43:23;;;;;;;29.92;5.72;;;;;;;;;;5061697;28;20511;-81
2023/05/26 06:45:50;;;;;;;30.48;6.35;;;;;;;;;;5074371;28;20036;-78
2023/05/26 06:48:16;;;;;;;27.27;6.05;;;;;;;;;;5057781;28;20076;-78
2023/05/26 06:50:42;;;;;;;29.35;5.32;;;;;;;;;;5094532;28;20079;-80
2023/05/26 06:53:07;;;;;;;29.73;5.68;;;;;;;;;;5057792;28;20535;-81
2023/05/26 06:55:33;;;;;;;26.98;5.10;;;;;;;;;;5059751;28;20046;-78
2023/05/26 06:57:59;;;;;;;25.80;5.32;;;;;;;;;;5082176;28;20519;-78
2023/05/26 07:00:25;;;;;;;22.48;5.20;;;;;;;;;;5070627;28;20123;-77
2023/05/26 07:02:51;;;;;;;28.58;5.63;;;;;;;;;;5053957;28;20045;-82
2023/05/26 07:05:17;;;;;;;25.42;5.07;;;;;;;;;;5077049;28;20105;-77
2023/05/26 07:07:43;;;;;;;26.58;5.32;;;;;;;;;;5059515;28;20404;-81
2023/05/26 07:10:09;;;;;;;21.88;4.50;;;;;;;;;;5074134;28;20048;-78
2023/05/26 07:12:35;;;;;;;18.52;4.22;;;;;;;;;;5072976;28;20039;-79
2023/05/26 07:15:01;;;;;;;23.27;4.60;;;;;;;;;;5070379;28;20373;-80
2023/05/26 07:17:27;;;;;;;24.23;4.82;;;;;;;;;;5061490;28;20052;-78
2023/05/26 07:19:53;;;;;;;23.75;4.53;;;;;;;;;;5080337;28;20408;-79
2023/05/26 07:22:19;;;;;;;22.67;5.05;;;;;;;;;;5073295;28;20050;-77
2023/05/26 07:24:45;;;;;;;25.45;5.03;;;;;;;;;;5078982;28;20442;-80
2023/05/26 07:27:11;;;;;;;21.92;5.20;;;;;;;;;;5079680;28;20079;-80
2023/05/26 07:29:38;;;;;;;18.50;4.30;;;;;;;;;;5066860;28;20519;-77
2023/05/26 07:32:04;;;;;;;22.42;4.80;;;;;;;;;;5057068;28;20057;-79
2023/05/26 07:34:30;;;;;;;19.45;5.43;;;;;;;;;;5064434;28;20070;-83
2023/05/26 07:36:56;;;;;;;22.50;4.95;;;;;;;;;;5073451;28;20387;-82
2023/05/26 07:39:22;;;;;;;17.67;4.43;;;;;;;;;;5057084;28;20047;-85
2023/05/26 07:41:48;;;;;;;21.10;4.75;;;;;;;;;;5058984;28;20043;-82
2023/05/26 07:44:14;;;;;;;16.90;4.32;;;;;;;;;;5052446;28;20450;-81
2023/05/26 07:46:40;;;;;;;23.30;4.47;;;;;;;;;;5066340;28;20044;-79
2023/05/26 07:49:06;;;;;;;22.63;4.80;;;;;;;;;;5065626;28;20404;-84
2023/05/26 07:51:32;;;;;;;21.38;4.57;;;;;;;;;;5072753;28;20054;-81
2023/05/26 07:53:58;;;;;;;21.80;5.00;;;;;;;;;;5065336;28;20036;-82
2023/05/26 07:56:25;;;;;;;24.05;4.65;;;;;;;;;;5058325;28;20052;-81
2023/05/26 07:58:51;;;;;;;21.20;4.50;;;;;;;;;;5063441;28;20047;-76
2023/05/26 08:01:17;;;;;;;20.80;4.45;;;;;;;;;;5068504;28;20041;-82
2023/05/26 08:03:43;;;;;;;19.25;4.57;;;;;;;;;;5052148;28;20793;-82
2023/05/26 08:06:09;;;;;;;17.75;4.43;;;;;;;;;;5073413;28;20059;-80
2023/05/26 08:08:35;;;;;;;22.23;5.00;;;;;;;;;;5074117;28;20052;-83
2023/05/26 08:11:01;;;;;;;15.98;3.78;;;;;;;;;;5075952;28;20047;-83
2023/05/26 08:13:27;;;;;;;18.83;3.80;;;;;;;;;;5073764;28;20067;-83
2023/05/26 08:15:53;;;;;;;16.33;4.18;;;;;;;;;;5044085;28;20080;-81
2023/05/26 08:18:19;;;;;;;15.45;3.85;;;;;;;;;;5062481;28;20052;-79
2023/05/26 08:20:45;;;;;;;23.92;3.92;;;;;;;;;;5063449;28;20091;-80
2023/05/26 08:23:11;;;;;;;18.55;4.28;;;;;;;;;;5073744;28;20081;-80
2023/05/26 08:25:37;;;;;;;20.40;4.50;;;;;;;;;;5083627;28;20075;-79
2023/05/26 08:28:03;;;;;;;20.30;4.50;;;;;;;;;;5063097;28;20521;-82
2023/05/26 08:30:29;;;;;;;19.35;4.38;;;;;;;;;;5079128;28;20043;-80
2023/05/26 08:32:55;;;;;;;16.48;4.00;;;;;;;;;;5071851;28;20090;-78
2023/05/26 08:35:21;;;;;;;17.90;3.65;;;;;;;;;;5077290;28;20519;-77
2023/05/26 08:37:47;;;;;;;17.52;3.80;;;;;;;;;;5084904;28;20119;-79
2023/05/26 08:40:14;;;;;;;16.88;3.83;;;;;;;;;;5065357;28;20498;-80
2023/05/26 08:42:49;;;;;;;19.10;3.95;;;;;;;;;;5076301;28;20044;-79
2023/05/26 08:45:15;;;;;;;15.95;3.90;;;;;;;;;;5064269;28;20090;-81
2023/05/26 08:47:42;;;;;;;18.13;4.30;;;;;;;;;;5078314;28;20048;-81
2023/05/26 08:50:09;;;;;;;17.98;3.83;;;;;;;;;;5053168;28;20040;-80
2023/05/26 08:52:36;;;;;;;17.33;3.80;;;;;;;;;;5074733;28;20143;-81
2023/05/26 08:55:06;;;;;;;19.02;3.85;;;;;;;;;;5072717;28;20052;-78
2023/05/26 08:57:32;;;;;;;15.38;3.95;;;;;;;;;;5075669;28;20462;-80
2023/05/26 08:59:58;;;;;;;16.60;3.58;;;;;;;;;;5081043;28;20036;-81
2023/05/26 09:02:24;;;;;;;20.00;3.80;;;;;;;;;;5073394;28;20403;-82
2023/05/26 09:04:51;;;;;;;16.48;3.38;;;;;;;;;;5069644;28;20437;-81
2023/05/26 09:07:18;;;;;;;16.85;3.88;;;;;;;;;;5066109;28;20135;-77
2023/05/26 09:09:44;;;;;;;17.92;4.07;;;;;;;;;;5094042;28;20048;-81
2023/05/26 09:12:10;;;;;;;16.17;3.92;;;;;;;;;;5077676;28;20101;-79
2023/05/26 09:14:37;;;;;;;23.60;3.80;;;;;;;;;;5081603;28;20047;-79
2023/05/26 09:17:04;;;;;;;18.48;3.90;;;;;;;;;;5070111;28;20555;-80
2023/05/26 09:19:31;;;;;;;20.83;3.88;;;;;;;;;;5086118;28;20040;-79
2023/05/26 09:22:04;;;;;;;18.85;3.78;;;;;;;;;;5054084;28;20223;-81
2023/05/26 09:24:30;;;;;;;18.48;3.95;;;;;;;;;;5065962;28;20553;-81
2023/05/26 09:26:57;;;;;;;20.02;3.95;;;;;;;;;;5072213;28;20036;-79
2023/05/26 09:29:23;;;;;;;16.38;3.78;;;;;;;;;;5083593;28;20032;-80
2023/05/26 09:31:50;;;;;;;17.75;3.80;;;;;;;;;;5059924;28;20053;-80
2023/05/26 09:34:23;;;;;;;21.08;4.00;;;;;;;;;;5077154;28;20068;-83
2023/05/26 09:36:50;;;;;;;17.88;4.13;;;;;;;;;;5077538;28;20056;-81
2023/05/26 09:39:16;;;;;;;17.17;4.20;;;;;;;;;;5086784;28;20032;-79
2023/05/26 09:41:45;;;;;;;19.42;4.00;;;;;;;;;;5074583;28;20036;-79
2023/05/26 09:44:13;;;;;;;11.73;3.53;;;;;;;;;;5086452;28;20105;-80
2023/05/26 09:46:39;;;;;;;19.27;3.65;;;;;;;;;;5071117;28;20123;-80
2023/05/26 09:49:13;;;;;;;19.67;4.35;;;;;;;;;;5080530;28;20519;-81
2023/05/26 09:51:40;;;;;;;18.77;3.70;;;;;;;;;;5071827;28;20044;-78
2023/05/26 09:54:06;;;;;;;14.45;3.55;;;;;;;;;;5087705;28;20056;-82
2023/05/26 09:56:34;;;;;;;14.40;3.70;;;;;;;;;;5081053;28;20044;-80
2023/05/26 09:59:02;;;;;;;15.30;4.18;;;;;;;;;;5087350;28;20044;-79
2023/05/26 10:01:29;;;;;;;18.48;3.72;;;;;;;;;;5081264;28;20120;-80
2023/05/26 10:03:55;;;;;;;21.75;3.83;;;;;;;;;;5086392;28;20093;-80
2023/05/26 10:06:21;;;;;;;14.30;3.33;;;;;;;;;;5085123;28;20044;-82
2023/05/26 10:08:50;;;;;;;14.95;3.60;;;;;;;;;;5077049;28;20542;-80
2023/05/26 10:11:16;;;;;;;16.08;3.88;;;;;;;;;;5084003;28;20102;-81
2023/05/26 10:13:42;;;;;;;14.23;3.10;;;;;;;;;;5084345;28;20526;-80
2023/05/26 10:16:08;;;;;;;14.02;3.70;;;;;;;;;;5080067;28;20048;-80
2023/05/26 10:18:34;;;;;;;17.20;3.53;;;;;;;;;;5087064;28;20074;-81
2023/05/26 10:21:05;;;;;;;20.10;3.60;;;;;;;;;;5077500;28;20028;-80
2023/05/26 10:23:35;;;;;;;16.58;4.70;;;;;;;;;;5066180;28;20470;-82
2023/05/26 10:26:04;;;;;;;13.30;3.70;;;;;;;;;;5081133;28;20044;-80
2023/05/26 10:28:36;;;;;;;19.88;4.38;;;;;;;;;;5093474;28;20043;-81
2023/05/26 10:31:02;;;;;;;17.13;3.40;;;;;;;;;;5076097;28;20045;-81
2023/05/26 10:33:41;;;;;;;17.17;3.78;;;;;;;;;;5067410;28;20041;-82
2023/05/26 10:36:08;;;;;;;17.75;3.95;;;;;;;;;;5079700;28;20552;-81
2023/05/26 10:38:38;;;;;;;15.32;3.70;;;;;;;;;;5067905;28;20072;-79
2023/05/26 10:41:14;;;;;;;16.13;4.15;;;;;;;;;;5097601;28;20044;-78
2023/05/26 10:43:42;;;;;;;16.98;3.72;;;;;;;;;;5077660;28;20036;-79
2023/05/26 10:46:08;;;;;;;;;;;;;;;;;;5067378;28;20514;-81
2023/05/26 10:48:38;;;;;;;15.18;4.18;;;;;;;;;;5086298;28;19924;-81
2023/05/26 10:51:08;;;;;;;15.25;4.05;;;;;;;;;;5074861;28;20062;-81
2023/05/26 10:53:36;;;;;;;18.23;4.15;;;;;;;;;;5080123;28;20044;-81
2023/05/26 10:56:08;;;;;;;16.43;3.83;;;;;;;;;;5063639;28;20051;-81
2023/05/26 10:58:38;;;;;;;17.38;4.25;;;;;;;;;;5072802;28;20489;-81
2023/05/26 11:01:06;;;;;;;16.90;3.70;;;;;;;;;;5079940;28;20036;-79
2023/05/26 11:03:38;;;;;;;12.25;3.25;;;;;;;;;;5084908;28;20052;-79
2023/05/26 11:06:07;;;;;;;13.07;3.97;;;;;;;;;;5071572;28;20037;-80
2023/05/26 11:08:35;;;;;;;19.50;4.10;;;;;;;;;;5074617;28;20121;-78
2023/05/26 11:11:05;;;;;;;17.13;3.83;;;;;;;;;;5072635;28;20492;-81
2023/05/26 11:13:43;;;;;;;17.25;4.03;;;;;;;;;;5084224;28;20048;-78
2023/05/26 11:16:19;;;;;;;12.98;4.05;;;;;;;;;;5059524;28;20044;-77
2023/05/26 11:18:49;;;;;;;16.02;3.70;;;;;;;;;;5080947;28;20105;-78
2023/05/26 11:21:16;;;;;;;17.98;4.47;;;;;;;;;;5084999;28;20070;-79
2023/05/26 11:23:42;;;;;;;16.50;3.50;;;;;;;;;;5086561;28;20079;-77
2023/05/26 11:26:12;;;;;;;13.43;3.50;;;;;;;;;;5060035;28;20051;-78
2023/05/26 11:28:45;;;;;;;17.73;3.83;;;;;;;;;;5071922;28;20047;-82
2023/05/26 11:31:12;;;;;;;14.70;4.10;;;;;;;;;;5077139;28;20049;-79
2023/05/26 11:33:38;;;;;;;15.57;4.13;;;;;;;;;;5074126;28;20503;-81
2023/05/26 11:36:12;;;;;;;13.43;3.80;;;;;;;;;;5061795;28;20040;-80
2023/05/26 11:38:38;;;;;;;14.20;3.50;;;;;;;;;;5075278;28;20056;-81
2023/05/26 11:41:05;;;;;;;13.15;3.95;;;;;;;;;;5063949;28;20495;-79
2023/05/26 11:43:31;;;;;;;17.80;4.38;;;;;;;;;;5047430;28;20048;-79
2023/05/26 11:46:01;;;;;;;16.13;3.50;;;;;;;;;;5062459;28;20044;-77
2023/05/26 11:48:35;;;;;;;17.88;3.67;;;;;;;;;;5068095;28;20048;-79
2023/05/26 11:51:01;;;;;;;13.20;3.53;;;;;;;;;;5054022;28;20033;-80
2023/05/26 11:53:30;;;;;;;16.48;3.90;;;;;;;;;;5047175;28;20629;-82
2023/05/26 11:56:07;;;;;;;19.38;4.15;;;;;;;;;;5045087;28;20083;-80
2023/05/26 11:58:34;;;;;;;19.33;4.63;;;;;;;;;;5074821;28;20052;-76
2023/05/26 12:01:02;;;;;;;18.45;3.72;;;;;;;;;;5039483;28;20033;-81
2023/05/26 12:03:30;;;;;;;19.50;4.68;;;;;;;;;;5044078;28;20060;-79
2023/05/26 12:06:06;;;;;;;22.13;4.45;;;;;;;;;;5048016;28;20542;-78
2023/05/26 12:08:46;;;;;;;20.40;4.55;;;;;;;;;;5039609;28;20040;-78
2023/05/26 12:14:37;;;;;;;18.42;4.90;;;;;;;;;;5056830;28;20040;-78
2023/05/26 12:17:06;;;;;;;20.50;4.63;;;;;;;;;;5072130;28;20057;-78
2023/05/26 12:19:35;;;;;;;21.05;4.63;;;;;;;;;;5065515;28;20045;-77
2023/05/26 12:22:02;;;;;;;15.85;4.38;;;;;;;;;;5054406;28;20040;-78
2023/05/26 12:24:41;;;;;;;23.40;4.70;;;;;;;;;;5057149;28;20122;-79
2023/05/26 12:27:16;;;;;;;24.13;4.50;;;;;;;;;;5053217;28;20052;-82
2023/05/26 12:29:52;;;;;;;20.40;4.68;;;;;;;;;;5043116;28;20145;-77
2023/05/26 12:32:18;;;;;;;16.00;4.00;;;;;;;;;;5072377;28;20061;-78
2023/05/26 12:38:38;;;;;;;26.80;4.82;;;;;;;;;;5050947;28;20086;-79
2023/05/26 12:41:05;;;;;;;13.98;3.97;;;;;;;;;;5042008;28;20139;-79
2023/05/26 12:43:31;;;;;;;21.65;4.50;;;;;;;;;;5048264;28;20052;-79
2023/05/26 12:45:57;;;;;;;14.73;4.55;;;;;;;;;;5029243;28;20055;-83
2023/05/26 12:48:23;;;;;;;22.55;5.15;;;;;;;;;;5036026;28;20044;-80
2023/05/26 12:50:49;;;;;;;20.65;4.80;;;;;;;;;;5059494;28;20052;-81
2023/05/26 12:53:15;;;;;;;18.70;3.80;;;;;;;;;;5053014;28;20171;-79
2023/05/26 12:55:41;;;;;;;17.00;4.00;;;;;;;;;;5033081;28;20109;-80
2023/05/26 12:58:10;;;;;;;16.70;4.25;;;;;;;;;;5055091;28;20978;-84
2023/05/26 13:00:36;;;;;;;15.13;3.55;;;;;;;;;;5040437;28;20101;-82
2023/05/26 13:03:02;;;;;;;18.20;4.03;;;;;;;;;;5041016;28;20032;-83
2023/05/26 13:05:29;;;;;;;19.38;3.75;;;;;;;;;;5038565;28;20056;-82
2023/05/26 13:07:56;;;;;;;21.52;4.47;;;;;;;;;;5053634;28;20016;-82
2023/05/26 13:10:22;;;;;;;13.52;3.40;;;;;;;;;;5075089;28;20055;-81
2023/05/26 13:12:48;;;;;;;15.52;4.07;;;;;;;;;;5054929;28;20044;-82
2023/05/26 13:15:16;;;;;;;16.27;3.80;;;;;;;;;;5058938;28;20057;-82
2023/05/26 13:17:46;;;;;;;17.52;4.35;;;;;;;;;;5080228;28;20048;-82
2023/05/26 13:20:12;;;;;;;17.48;3.97;;;;;;;;;;5040864;28;20109;-82
2023/05/26 13:22:40;;;;;;;19.65;4.45;;;;;;;;;;5062294;28;20044;-82
2023/05/26 13:25:06;;;;;;;17.10;4.78;;;;;;;;;;5036852;28;20068;-82
2023/05/26 13:27:32;;;;;;;25.20;5.03;;;;;;;;;;5054622;28;20052;-82
2023/05/26 13:29:58;;;;;;;16.33;4.68;;;;;;;;;;5037208;28;20029;-83
2023/05/26 13:32:24;;;;;;;20.63;4.50;;;;;;;;;;5037591;28;20056;-82
2023/05/26 13:34:50;;;;;;;18.98;4.43;;;;;;;;;;5068917;28;20486;-82
2023/05/26 13:37:16;;;;;;;16.50;4.20;;;;;;;;;;5043466;28;20079;-82
2023/05/26 13:39:42;;;;;;;16.25;4.22;;;;;;;;;;5055101;28;20080;-82
2023/05/26 13:42:08;;;;;;;24.25;4.75;;;;;;;;;;5042031;28;20053;-82
2023/05/26 13:44:34;;;;;;;19.90;5.38;;;;;;;;;;5037120;28;20064;-82
2023/05/26 13:47:00;;;;;;;32.22;7.03;;;;;;;;;;5059132;28;20044;-82
2023/05/26 13:49:26;;;;;;;22.23;4.50;;;;;;;;;;5053318;28;20029;-82
2023/05/26 13:51:52;;;;;;;21.77;4.63;;;;;;;;;;5057470;28;20041;-83
2023/05/26 13:54:18;;;;;;;21.17;4.43;;;;;;;;;;5054814;28;20541;-83
2023/05/26 13:56:45;;;;;;;24.02;5.07;;;;;;;;;;5040457;28;20070;-83
2023/05/26 13:59:11;;;;;;;22.23;5.03;;;;;;;;;;5052118;28;20877;-83
2023/05/26 14:01:37;;;;;;;21.75;4.60;;;;;;;;;;5044957;28;20411;-83
2023/05/26 14:04:03;;;;;;;22.75;4.78;;;;;;;;;;5049073;28;20053;-83
2023/05/26 14:06:34;;;;;;;20.70;4.93;;;;;;;;;;5041279;28;20055;-82
2023/05/26 14:09:00;;;;;;;20.50;4.97;;;;;;;;;;5054478;28;20043;-83
2023/05/26 14:11:26;;;;;;;20.42;4.55;;;;;;;;;;5042899;28;20056;-83
2023/05/26 14:13:53;;;;;;;20.13;4.68;;;;;;;;;;5044536;28;20135;-83
2023/05/26 14:16:19;;;;;;;19.17;4.75;;;;;;;;;;5038585;28;20132;-83
2023/05/26 14:18:45;;;;;;;20.25;5.28;;;;;;;;;;5047628;28;20115;-84
2023/05/26 14:21:11;;;;;;;21.58;4.95;;;;;;;;;;5070746;28;20103;-82
2023/05/26 14:23:48;;;;;;;26.95;5.07;;;;;;;;;;5071117;28;20045;-82
2023/05/26 14:26:14;;;;;;;30.67;5.10;;;;;;;;;;5063569;28;20044;-84
2023/05/26 14:28:40;;;;;;;23.38;5.10;;;;;;;;;;5065462;28;20028;-82
2023/05/26 14:31:06;;;;;;;21.73;4.57;;;;;;;;;;5062791;28;20479;-83
2023/05/26 14:33:32;;;;;;;26.42;5.13;;;;;;;;;;5045702;28;20052;-82
2023/05/26 14:35:58;;;;;;;26.98;5.38;;;;;;;;;;5059557;28;20044;-82
2023/05/26 14:38:25;;;;;;;25.67;5.50;;;;;;;;;;5042591;28;20029;-83